createdAt,value
2018-08-09T00:00:18.845Z,24.40
2018-08-09T00:02:47.566Z,24.50
2018-08-09T00:05:17.957Z,24.50
2018-08-09T00:07:47.353Z,24.60
2018-08-09T00:10:15.976Z,24.80
2018-08-09T00:12:44.949Z,24.90
2018-08-09T00:15:13.516Z,24.90
2018-08-09T00:17:42.594Z,24.80
2018-08-09T00:20:11.362Z,24.80
2018-08-09T00:22:40.157Z,24.90
2018-08-09T00:25:09.306Z,24.10
2018-08-09T00:27:38.041Z,25.00
2018-08-09T00:30:07.251Z,25.00
2018-08-09T00:32:35.895Z,23.30
2018-08-09T00:35:04.734Z,25.00
2018-08-09T00:37:33.482Z,25.00
2018-08-09T00:40:02.402Z,25.00
2018-08-09T00:42:31.117Z,24.90
2018-08-09T00:44:59.780Z,24.90
2018-08-09T00:47:28.434Z,24.90
2018-08-09T00:49:57.083Z,24.80
2018-08-09T00:52:25.895Z,24.80
2018-08-09T00:54:54.545Z,24.80
2018-08-09T00:57:23.335Z,24.80
2018-08-09T00:59:52.060Z,23.90
2018-08-09T01:02:20.805Z,24.80
2018-08-09T01:04:51.314Z,24.80
2018-08-09T01:07:19.969Z,24.90
2018-08-09T01:09:48.691Z,24.80
2018-08-09T01:12:17.282Z,24.80
2018-08-09T01:14:46.096Z,24.80
2018-08-09T01:17:14.961Z,24.80
2018-08-09T01:19:43.668Z,24.70
2018-08-09T01:26:48.258Z,24.50
2018-08-09T01:29:16.951Z,24.20
2018-08-09T01:31:45.744Z,24.10
2018-08-09T01:34:14.677Z,23.90
2018-08-09T01:36:43.412Z,23.90
2018-08-09T01:39:13.359Z,23.90
2018-08-09T01:41:53.076Z,23.90
2018-08-09T01:44:21.827Z,23.90
2018-08-09T01:46:50.506Z,23.90
2018-08-09T01:49:19.166Z,23.90
2018-08-09T01:51:47.855Z,24.00
2018-08-09T01:54:17.139Z,24.00
2018-08-09T01:56:45.779Z,24.00
2018-08-09T01:59:14.388Z,24.10
2018-08-09T02:01:43.139Z,24.00
2018-08-09T02:04:11.827Z,24.00
2018-08-09T02:06:40.560Z,24.00
2018-08-09T02:09:11.408Z,24.00
2018-08-09T02:11:40.119Z,23.90
2018-08-09T02:14:08.721Z,23.90
2018-08-09T02:16:37.550Z,23.80
2018-08-09T02:19:06.353Z,23.90
2018-08-09T02:21:35.039Z,23.90
2018-08-09T02:24:03.699Z,23.90
2018-08-09T02:26:32.385Z,23.90
2018-08-09T02:29:01.008Z,23.80
2018-08-09T02:31:29.767Z,23.80
2018-08-09T02:33:58.451Z,23.70
2018-08-09T02:36:27.192Z,23.50
2018-08-09T02:38:55.951Z,23.50
2018-08-09T02:41:24.702Z,23.50
2018-08-09T02:43:53.411Z,23.50
2018-08-09T02:46:22.179Z,23.40
2018-08-09T02:48:50.890Z,23.50
2018-08-09T02:51:19.616Z,23.50
2018-08-09T02:53:48.391Z,23.50
2018-08-09T02:56:17.070Z,23.50
2018-08-09T02:58:45.753Z,23.30
2018-08-09T03:01:14.477Z,23.20
2018-08-09T03:03:43.968Z,23.20
2018-08-09T03:06:13.851Z,23.20
2018-08-09T03:08:42.543Z,23.20
2018-08-09T03:11:11.186Z,23.10
2018-08-09T03:13:39.906Z,23.10
2018-08-09T03:16:14.958Z,23.00
2018-08-09T03:18:43.639Z,23.10
2018-08-09T03:21:12.475Z,21.60
2018-08-09T03:23:41.356Z,23.20
2018-08-09T03:26:11.163Z,23.20
2018-08-09T03:28:39.798Z,23.20
2018-08-09T03:31:08.530Z,23.20
2018-08-09T03:33:37.180Z,23.30
2018-08-09T03:36:06.039Z,23.30
2018-08-09T03:38:34.781Z,23.30
2018-08-09T03:41:03.992Z,23.20
2018-08-09T03:43:32.677Z,23.10
2018-08-09T03:46:01.352Z,23.10
2018-08-09T03:48:30.136Z,23.00
2018-08-09T03:50:58.857Z,23.00
2018-08-09T03:53:27.534Z,23.00
2018-08-09T03:55:56.268Z,23.00
2018-08-09T03:58:24.882Z,22.90
2018-08-09T04:00:53.559Z,22.90
2018-08-09T04:03:23.266Z,22.90
2018-08-09T04:05:54.207Z,22.90
2018-08-09T04:08:22.983Z,22.90
2018-08-09T04:10:52.171Z,22.80
2018-08-09T04:13:20.788Z,22.80
2018-08-09T04:15:49.560Z,22.90
2018-08-09T04:18:19.260Z,22.90
2018-08-09T04:20:47.868Z,22.80
2018-08-09T04:23:17.655Z,22.90
2018-08-09T04:25:46.449Z,22.90
2018-08-09T04:28:15.239Z,22.80
2018-08-09T04:30:43.950Z,22.90
2018-08-09T04:33:12.708Z,23.00
2018-08-09T04:35:41.461Z,22.90
2018-08-09T04:38:10.271Z,23.00
2018-08-09T04:40:38.915Z,22.90
2018-08-09T04:43:07.636Z,23.00
2018-08-09T04:45:36.338Z,22.90
2018-08-09T04:48:05.167Z,22.90
2018-08-09T04:50:33.930Z,22.90
2018-08-09T04:53:02.858Z,22.90
2018-08-09T04:55:31.648Z,22.90
2018-08-09T04:58:00.386Z,23.00
2018-08-09T05:00:30.910Z,22.90
2018-08-09T05:02:59.610Z,22.90
2018-08-09T05:05:28.254Z,22.90
2018-08-09T05:07:57.597Z,22.90
2018-08-09T05:10:26.302Z,22.90
2018-08-09T05:12:55.378Z,23.00
2018-08-09T05:15:24.113Z,22.90
2018-08-09T05:17:52.801Z,22.90
2018-08-09T05:20:21.434Z,22.90
2018-08-09T05:22:50.210Z,23.00
2018-08-09T05:25:18.995Z,23.00
2018-08-09T05:27:47.721Z,23.10
2018-08-09T05:30:16.405Z,23.10
2018-08-09T05:32:45.087Z,23.10
2018-08-09T05:35:13.812Z,23.20
2018-08-09T05:37:42.559Z,23.20
2018-08-09T05:40:11.379Z,23.40
2018-08-09T05:42:40.081Z,23.40
2018-08-09T05:45:08.896Z,23.50
2018-08-09T05:47:37.557Z,23.60
2018-08-09T05:50:06.567Z,23.70
2018-08-09T05:52:35.249Z,23.80
2018-08-09T05:55:04.015Z,23.80
2018-08-09T05:57:33.609Z,23.90
2018-08-09T06:00:02.792Z,24.00
2018-08-09T06:02:31.668Z,24.10
2018-08-09T06:05:01.213Z,24.20
2018-08-09T06:07:35.218Z,24.30
2018-08-09T06:10:04.874Z,24.30
2018-08-09T06:12:33.796Z,24.20
2018-08-09T06:15:03.223Z,22.50
2018-08-09T06:17:32.078Z,24.20
2018-08-09T06:20:00.714Z,24.20
2018-08-09T06:22:31.597Z,23.10
2018-08-09T06:25:00.530Z,24.30
2018-08-09T06:27:29.200Z,24.40
2018-08-09T06:29:57.954Z,24.60
2018-08-09T06:32:28.168Z,24.70
2018-08-09T06:34:56.916Z,24.70
2018-08-09T06:37:25.661Z,24.70
2018-08-09T06:39:54.636Z,24.70
2018-08-09T06:42:23.447Z,24.60
2018-08-09T06:44:54.815Z,24.70
2018-08-09T06:47:23.628Z,24.70
2018-08-09T06:49:52.317Z,24.70
2018-08-09T06:52:20.972Z,24.80
2018-08-09T06:54:49.677Z,24.90
2018-08-09T06:57:18.795Z,25.40
2018-08-09T06:59:47.556Z,25.00
2018-08-09T07:02:16.290Z,25.10
2018-08-09T07:04:45.066Z,25.20
2018-08-09T07:07:13.760Z,25.10
2018-08-09T07:09:42.429Z,25.00
2018-08-09T07:12:13.949Z,24.90
2018-08-09T07:14:43.203Z,25.00
2018-08-09T07:17:11.799Z,24.60
2018-08-09T07:19:41.587Z,25.40
2018-08-09T07:22:10.459Z,25.80
2018-08-09T07:24:40.436Z,25.60
2018-08-09T07:27:10.214Z,25.60
2018-08-09T07:29:40.532Z,25.70
2018-08-09T07:32:12.870Z,26.10
2018-08-09T07:37:22.284Z,25.80
2018-08-09T07:39:53.747Z,25.90
2018-08-09T07:42:22.564Z,26.10
2018-08-09T07:44:52.088Z,26.10
2018-08-09T07:47:22.437Z,26.00
2018-08-09T07:49:51.345Z,26.10
2018-08-09T07:52:19.914Z,26.20
2018-08-09T07:54:50.784Z,26.30
2018-08-09T07:57:21.211Z,25.40
2018-08-09T07:59:50.125Z,26.50
2018-08-09T08:02:18.967Z,26.70
2018-08-09T08:04:48.499Z,25.20
2018-08-09T08:07:17.124Z,26.60
2018-08-09T08:09:45.738Z,26.70
2018-08-09T08:12:14.586Z,26.80
2018-08-09T08:14:43.328Z,26.90
2018-08-09T08:17:15.705Z,27.00
2018-08-09T08:19:48.389Z,27.00
2018-08-09T08:22:17.321Z,27.10
2018-08-09T08:24:48.960Z,27.40
2018-08-09T08:27:29.276Z,27.60
2018-08-09T08:29:58.389Z,27.70
2018-08-09T08:32:28.068Z,28.70
2018-08-09T08:34:58.707Z,27.90
2018-08-09T08:37:27.364Z,28.00
2018-08-09T08:39:57.220Z,28.10
2018-08-09T08:42:26.394Z,28.20
2018-08-09T08:44:55.090Z,28.40
2018-08-09T08:47:23.762Z,28.40
2018-08-09T08:49:52.952Z,28.40
2018-08-09T08:52:21.642Z,28.50
2018-08-09T08:54:50.500Z,29.70
2018-08-09T08:57:19.376Z,28.90
2018-08-09T08:59:48.028Z,29.00
2018-08-09T09:02:17.277Z,29.20
2018-08-09T09:04:46.109Z,29.40
2018-08-09T09:07:16.030Z,29.40
2018-08-09T09:09:44.732Z,29.20
2018-08-09T09:12:13.398Z,29.10
2018-08-09T09:14:42.112Z,29.20
2018-08-09T09:17:10.994Z,29.30
2018-08-09T09:19:41.231Z,29.30
2018-08-09T09:22:11.650Z,29.30
2018-08-09T09:24:41.878Z,29.70
2018-08-09T09:27:10.587Z,29.70
2018-08-09T09:29:39.204Z,29.00
2018-08-09T09:32:12.554Z,29.60
2018-08-09T09:34:41.522Z,29.70
2018-08-09T09:37:10.248Z,29.80
2018-08-09T09:39:38.867Z,30.00
2018-08-09T09:42:07.625Z,30.20
2018-08-09T09:44:36.339Z,30.20
2018-08-09T09:47:05.024Z,30.10
2018-08-09T09:49:38.246Z,30.40
2018-08-09T09:52:06.920Z,30.60
2018-08-09T09:54:38.512Z,30.90
2018-08-09T09:57:07.352Z,31.00
2018-08-09T09:59:36.648Z,31.20
2018-08-09T10:02:12.149Z,31.20
2018-08-09T10:04:41.058Z,31.00
2018-08-09T10:07:13.148Z,31.10
2018-08-09T10:09:45.051Z,31.20
2018-08-09T10:12:13.814Z,31.30
2018-08-09T10:14:43.324Z,31.50
2018-08-09T10:17:18.924Z,31.70
2018-08-09T10:19:47.649Z,31.70
2018-08-09T10:22:19.700Z,31.90
2018-08-09T10:24:50.977Z,32.10
2018-08-09T10:27:23.168Z,32.20
2018-08-09T10:30:08.047Z,32.20
2018-08-09T10:32:49.970Z,33.00
2018-08-09T10:35:19.007Z,34.40
2018-08-09T10:37:48.138Z,34.80
2018-08-09T10:40:16.801Z,33.80
2018-08-09T10:42:47.043Z,34.20
2018-08-09T10:45:15.819Z,35.70
2018-08-09T10:47:44.436Z,35.00
2018-08-09T10:50:20.187Z,36.10
2018-08-09T10:52:52.881Z,36.60
2018-08-09T10:55:21.686Z,36.60
2018-08-09T10:57:52.975Z,37.30
2018-08-09T11:00:23.216Z,37.40
2018-08-09T11:02:52.115Z,37.90
2018-08-09T11:05:22.095Z,37.00
2018-08-09T11:07:51.115Z,37.50
2018-08-09T11:10:19.751Z,37.40
2018-08-09T11:12:50.543Z,37.50
2018-08-09T11:15:19.196Z,37.40
2018-08-09T11:17:47.870Z,37.80
2018-08-09T11:20:18.486Z,37.50
2018-08-09T11:22:51.878Z,37.60
2018-08-09T11:25:29.104Z,38.30
2018-08-09T11:27:57.918Z,37.30
2018-08-09T11:30:26.944Z,37.70
2018-08-09T11:32:55.635Z,38.70
2018-08-09T11:35:24.270Z,40.00
2018-08-09T11:37:52.898Z,41.00
2018-08-09T11:40:22.113Z,40.90
2018-08-09T11:42:50.801Z,39.90
2018-08-09T11:45:21.695Z,38.60
2018-08-09T11:47:50.409Z,38.30
2018-08-09T11:50:19.169Z,38.60
2018-08-09T11:52:47.927Z,39.00
2018-08-09T11:55:16.617Z,39.00
2018-08-09T11:57:47.123Z,39.40
2018-08-09T12:00:15.683Z,40.50
2018-08-09T12:02:46.868Z,40.60
2018-08-09T12:05:15.747Z,40.80
2018-08-09T12:07:45.511Z,40.40
2018-08-09T12:10:14.136Z,40.50
2018-08-09T12:12:42.911Z,41.00
2018-08-09T12:15:11.720Z,41.70
2018-08-09T12:17:40.428Z,41.50
2018-08-09T12:20:09.191Z,37.40
2018-08-09T12:22:37.884Z,39.20
2018-08-09T12:25:09.540Z,39.20
2018-08-09T12:27:40.019Z,40.10
2018-08-09T12:30:10.986Z,41.00
2018-08-09T12:32:39.663Z,41.90
2018-08-09T12:35:09.596Z,41.80
2018-08-09T12:37:39.400Z,39.60
2018-08-09T12:40:09.032Z,39.80
2018-08-09T12:42:38.129Z,40.80
2018-08-09T12:45:09.954Z,41.30
2018-08-09T12:47:38.981Z,42.00
2018-08-09T12:50:10.313Z,42.10
2018-08-09T12:52:41.338Z,42.10
2018-08-09T12:55:10.445Z,42.10
2018-08-09T12:57:41.522Z,42.40
2018-08-09T13:00:12.288Z,42.70
2018-08-09T13:02:41.357Z,42.20
2018-08-09T13:06:39.483Z,41.90
2018-08-09T13:09:09.945Z,42.10
2018-08-09T13:11:39.648Z,42.70
2018-08-09T13:14:08.418Z,43.00
2018-08-09T13:16:37.214Z,43.40
2018-08-09T13:19:06.886Z,43.10
2018-08-09T13:21:36.971Z,42.70
2018-08-09T13:24:05.558Z,42.80
2018-08-09T13:26:37.117Z,42.50
2018-08-09T13:29:06.149Z,43.20
2018-08-09T13:31:37.273Z,43.40
2018-08-09T13:34:06.007Z,43.80
2018-08-09T13:36:35.653Z,43.80
2018-08-09T13:39:07.031Z,43.60
2018-08-09T13:41:36.439Z,41.90
2018-08-09T13:44:06.693Z,43.20
2018-08-09T13:46:35.513Z,40.50
2018-08-09T13:49:06.791Z,39.80
2018-08-09T13:51:35.502Z,39.40
2018-08-09T13:54:06.613Z,41.20
2018-08-09T13:56:35.327Z,43.10
2018-08-09T13:59:07.436Z,44.60
2018-08-09T14:01:36.092Z,45.50
2018-08-09T14:04:05.208Z,46.00
2018-08-09T14:06:33.868Z,45.80
2018-08-09T14:09:05.150Z,46.40
2018-08-09T14:11:33.852Z,46.70
2018-08-09T14:14:02.448Z,45.40
2018-08-09T14:16:31.172Z,45.30
2018-08-09T14:18:59.854Z,45.20
2018-08-09T14:21:31.410Z,44.70
2018-08-09T14:23:59.997Z,44.80
2018-08-09T14:26:31.948Z,44.20
2018-08-09T14:29:01.711Z,43.80
2018-08-09T14:31:30.738Z,43.50
2018-08-09T14:34:02.975Z,43.40
2018-08-09T14:36:31.646Z,44.50
2018-08-09T14:39:02.039Z,45.30
2018-08-09T14:41:34.370Z,44.50
2018-08-09T14:44:05.778Z,45.10
2018-08-09T14:46:34.735Z,44.80
2018-08-09T14:49:06.841Z,44.10
2018-08-09T14:51:35.550Z,43.70
2018-08-09T14:54:04.341Z,43.40
2018-08-09T14:56:36.514Z,43.20
2018-08-09T14:59:05.490Z,42.80
2018-08-09T15:01:34.604Z,42.40
2018-08-09T15:04:03.415Z,42.10
2018-08-09T15:06:32.158Z,42.50
2018-08-09T15:09:00.852Z,40.90
2018-08-09T15:11:32.863Z,40.20
2018-08-09T15:14:01.497Z,39.20
2018-08-09T15:16:30.281Z,39.10
2018-08-09T15:18:59.121Z,38.70
2018-08-09T15:21:28.812Z,38.40
2018-08-09T15:23:57.536Z,38.10
2018-08-09T15:26:26.443Z,37.90
2018-08-09T15:28:55.171Z,37.90
2018-08-09T15:31:24.218Z,37.90
2018-08-09T15:33:57.640Z,37.90
2018-08-09T15:36:27.493Z,37.70
2018-08-09T15:38:57.786Z,37.50
2018-08-09T15:41:26.598Z,37.30
2018-08-09T15:43:55.348Z,37.10
2018-08-09T15:46:26.129Z,37.10
2018-08-09T15:48:54.848Z,37.00
2018-08-09T15:51:24.395Z,37.00
2018-08-09T15:53:53.867Z,36.90
2018-08-09T15:56:22.644Z,36.80
2018-08-09T15:58:53.966Z,36.80
2018-08-09T16:01:22.591Z,36.90
2018-08-09T16:03:55.180Z,36.90
2018-08-09T16:06:23.848Z,36.80
2018-08-09T16:08:53.771Z,36.90
2018-08-09T16:11:24.075Z,36.80
2018-08-09T16:13:54.459Z,36.50
2018-08-09T16:16:23.359Z,36.90
2018-08-09T16:18:53.243Z,36.80
2018-08-09T16:21:21.986Z,36.70
2018-08-09T16:23:52.097Z,36.70
2018-08-09T16:26:21.310Z,36.40
2018-08-09T16:28:49.934Z,36.20
2018-08-09T16:31:19.069Z,36.30
2018-08-09T16:33:52.318Z,36.30
2018-08-09T16:36:22.298Z,36.20
2018-08-09T16:38:51.114Z,36.30
2018-08-09T16:41:19.806Z,36.30
2018-08-09T16:43:50.143Z,36.20
2018-08-09T16:46:19.575Z,35.10
2018-08-09T16:48:50.170Z,35.90
2018-08-09T16:51:20.113Z,35.80
2018-08-09T16:53:48.735Z,35.80
2018-08-09T16:56:18.441Z,35.80
2018-08-09T16:58:49.506Z,35.40
2018-08-09T17:01:18.132Z,35.70
2018-08-09T17:06:21.297Z,35.70
2018-08-09T17:08:51.758Z,36.80
2018-08-09T17:12:24.498Z,35.60
2018-08-09T17:14:53.783Z,35.50
2018-08-09T17:17:22.446Z,35.60
2018-08-09T17:19:51.122Z,35.50
2018-08-09T17:22:20.108Z,35.60
2018-08-09T17:24:48.806Z,35.60
2018-08-09T17:27:17.567Z,35.50
2018-08-09T17:29:46.578Z,35.60
2018-08-09T17:32:15.326Z,36.00
2018-08-09T17:34:44.054Z,35.60
2018-08-09T17:37:13.053Z,35.40
2018-08-09T17:39:44.225Z,35.30
2018-08-09T17:42:12.978Z,35.30
2018-08-09T17:44:41.942Z,35.30
2018-08-09T17:47:10.735Z,35.30
2018-08-09T17:49:42.192Z,34.90
2018-08-09T17:52:10.916Z,34.50
2018-08-09T17:54:39.671Z,34.20
2018-08-09T17:57:08.582Z,33.90
2018-08-09T17:59:37.449Z,33.80
2018-08-09T18:02:06.335Z,33.60
2018-08-09T18:04:35.273Z,33.70
2018-08-09T18:07:04.253Z,33.50
2018-08-09T18:09:33.104Z,33.50
2018-08-09T18:12:01.870Z,33.40
2018-08-09T18:14:33.575Z,33.30
2018-08-09T18:17:02.397Z,33.30
2018-08-09T18:19:31.080Z,33.20
2018-08-09T18:21:59.781Z,33.30
2018-08-09T18:24:28.472Z,33.10
2018-08-09T18:26:57.196Z,33.00
2018-08-09T18:29:25.869Z,32.90
2018-08-09T18:31:54.671Z,32.80
2018-08-09T18:34:27.028Z,32.70
2018-08-09T18:36:55.886Z,32.60
2018-08-09T18:39:24.893Z,32.40
2018-08-09T18:41:53.614Z,32.20
2018-08-09T18:49:51.883Z,31.90
2018-08-09T18:52:20.797Z,31.30
2018-08-09T18:54:49.579Z,31.70
2018-08-09T18:57:18.303Z,31.10
2018-08-09T18:59:47.331Z,31.50
2018-08-09T19:03:45.473Z,31.50
2018-08-09T19:06:14.785Z,31.40
2018-08-09T19:08:43.526Z,31.30
2018-08-09T19:11:13.561Z,31.20
2018-08-09T19:13:42.301Z,31.10
2018-08-09T19:16:11.018Z,31.00
2018-08-09T19:18:39.684Z,30.90
2018-08-09T19:21:08.458Z,30.90
2018-08-09T19:23:37.318Z,30.90
2018-08-09T19:26:06.122Z,30.80
2018-08-09T19:28:35.138Z,30.70
2018-08-09T19:31:05.299Z,30.70
2018-08-09T19:33:35.727Z,30.60
2018-08-09T19:36:05.386Z,30.60
2018-08-09T19:38:35.308Z,30.60
2018-08-09T19:41:05.778Z,30.40
2018-08-09T19:43:34.738Z,30.30
2018-08-09T19:46:03.616Z,30.40
2018-08-09T19:48:32.792Z,30.40
2018-08-09T19:51:03.309Z,30.40
2018-08-09T19:53:31.970Z,30.40
2018-08-09T19:56:00.782Z,30.40
2018-08-09T19:58:29.749Z,30.30
2018-08-09T20:00:58.496Z,30.30
2018-08-09T20:03:27.413Z,30.20
2018-08-09T20:05:56.604Z,30.20
2018-08-09T20:08:25.350Z,30.00
2018-08-09T20:10:54.045Z,30.00
2018-08-09T20:13:22.977Z,30.00
2018-08-09T20:15:51.828Z,29.90
2018-08-09T20:18:20.654Z,29.90
2018-08-09T20:20:49.376Z,29.90
2018-08-09T20:23:18.275Z,29.90
2018-08-09T20:25:47.163Z,29.90
2018-08-09T20:28:17.108Z,29.90
2018-08-09T20:30:46.176Z,29.90
2018-08-09T20:33:14.874Z,30.00
2018-08-09T20:35:44.469Z,30.00
2018-08-09T20:38:13.374Z,30.00
2018-08-09T20:40:42.082Z,30.00
2018-08-09T20:43:10.868Z,30.00
2018-08-09T20:45:39.691Z,30.00
2018-08-09T20:48:08.528Z,28.90
2018-08-09T20:50:37.386Z,30.00
2018-08-09T20:53:06.350Z,29.80
2018-08-09T20:55:36.163Z,29.80
2018-08-09T20:58:04.971Z,29.70
2018-08-09T21:00:35.132Z,29.40
2018-08-09T21:03:03.981Z,29.50
2018-08-09T21:05:36.256Z,29.30
2018-08-09T21:08:05.385Z,29.20
2018-08-09T21:10:34.142Z,28.90
2018-08-09T21:13:02.966Z,28.40
2018-08-09T21:15:31.804Z,28.00
2018-08-09T21:18:00.887Z,27.50
2018-08-09T21:20:29.807Z,27.10
2018-08-09T21:22:58.689Z,26.90
2018-08-09T21:25:27.507Z,26.70
2018-08-09T21:27:56.355Z,26.60
2018-08-09T21:30:25.716Z,26.40
2018-08-09T21:32:54.618Z,26.40
2018-08-09T21:35:23.356Z,26.40
2018-08-09T21:37:52.124Z,26.50
2018-08-09T21:40:22.136Z,26.50
2018-08-09T21:42:50.830Z,26.50
2018-08-09T21:45:21.414Z,26.50
2018-08-09T21:47:50.028Z,26.40
2018-08-09T21:50:21.036Z,26.40
2018-08-09T21:52:50.880Z,26.30
2018-08-09T21:55:20.379Z,26.40
2018-08-09T21:57:49.699Z,26.30
2018-08-09T22:00:47.603Z,26.20
2018-08-09T22:03:16.790Z,26.20
2018-08-09T22:05:50.885Z,26.20
2018-08-09T22:08:24.902Z,26.00
2018-08-09T22:10:58.743Z,26.00
2018-08-09T22:13:32.507Z,26.00
2018-08-09T22:16:06.465Z,25.90
2018-08-09T22:18:40.255Z,25.80
2018-08-09T22:21:14.324Z,25.70
2018-08-09T22:23:43.046Z,25.60
2018-08-09T22:26:13.358Z,25.60
2018-08-09T22:28:42.720Z,24.40
2018-08-09T22:31:11.583Z,25.70
2018-08-09T22:33:42.373Z,25.60
2018-08-09T22:36:10.983Z,25.50
2018-08-09T22:38:39.972Z,25.50
2018-08-09T22:41:08.884Z,25.30
2018-08-09T22:43:37.681Z,24.90
2018-08-09T22:46:06.628Z,24.50
2018-08-09T22:48:35.412Z,24.60
2018-08-09T22:51:04.316Z,24.60
2018-08-09T22:53:33.071Z,24.60
2018-08-09T22:56:01.948Z,24.60
2018-08-09T22:58:30.596Z,24.40
2018-08-09T23:00:59.310Z,24.50
2018-08-09T23:03:28.003Z,24.50
2018-08-09T23:05:56.715Z,24.40
2018-08-09T23:08:25.413Z,24.30
2018-08-09T23:10:54.118Z,24.20
2018-08-09T23:13:22.818Z,24.10
2018-08-09T23:15:51.847Z,24.00
2018-08-09T23:18:20.567Z,24.10
2018-08-09T23:20:49.215Z,24.20
2018-08-09T23:23:17.919Z,24.00
2018-08-09T23:25:46.719Z,24.10
2018-08-09T23:28:15.546Z,24.20
2018-08-09T23:30:44.196Z,24.10
2018-08-09T23:33:12.910Z,24.00
2018-08-09T23:35:41.642Z,24.00
2018-08-09T23:38:10.383Z,23.90
2018-08-09T23:40:39.129Z,23.80
2018-08-09T23:43:07.960Z,23.60
2018-08-09T23:45:36.711Z,23.70
2018-08-09T23:48:05.462Z,23.70
2018-08-09T23:50:34.315Z,23.60
2018-08-09T23:53:03.081Z,23.60
2018-08-09T23:55:31.850Z,23.70
2018-08-09T23:58:01.373Z,23.70
